createdAt,value
2022-11-12T00:00:46.839Z,3.30
2022-11-12T00:03:13.283Z,3.20
2022-11-12T00:05:39.753Z,3.11
2022-11-12T00:08:06.249Z,3.03
2022-11-12T00:10:32.860Z,2.99
2022-11-12T00:12:59.598Z,2.99
2022-11-12T00:15:26.445Z,3.00
2022-11-12T00:17:53.031Z,3.00
2022-11-12T00:20:19.508Z,3.03
2022-11-12T00:22:45.967Z,3.08
2022-11-12T00:25:12.363Z,3.08
2022-11-12T00:27:38.920Z,3.02
2022-11-12T00:30:05.672Z,2.96
2022-11-12T00:32:32.085Z,2.93
2022-11-12T00:35:01.382Z,2.90
2022-11-12T00:37:29.142Z,2.91
2022-11-12T00:39:55.525Z,2.89
2022-11-12T00:42:21.948Z,2.86
2022-11-12T00:44:49.948Z,2.86
2022-11-12T00:47:16.590Z,2.88
2022-11-12T00:49:43.126Z,3.04
2022-11-12T00:52:09.493Z,3.07
2022-11-12T00:54:35.931Z,3.25
2022-11-12T00:57:02.376Z,3.41
2022-11-12T00:59:28.792Z,3.38
2022-11-12T01:01:55.276Z,3.45
2022-11-12T01:04:21.689Z,3.45
2022-11-12T01:06:48.126Z,3.45
2022-11-12T01:09:14.582Z,3.43
2022-11-12T01:11:41.276Z,3.37
2022-11-12T01:14:08.175Z,3.29
2022-11-12T01:16:35.467Z,3.20
2022-11-12T01:19:02.293Z,3.20
2022-11-12T01:21:29.422Z,3.19
2022-11-12T01:23:57.261Z,3.05
2022-11-12T01:26:23.737Z,2.82
2022-11-12T01:28:50.318Z,2.58
2022-11-12T01:31:24.007Z,2.48
2022-11-12T01:33:52.983Z,2.37
2022-11-12T01:36:19.452Z,2.37
2022-11-12T01:38:46.190Z,2.36
2022-11-12T01:41:14.052Z,2.35
2022-11-12T01:43:40.471Z,2.39
2022-11-12T01:46:20.689Z,2.43
2022-11-12T01:48:48.571Z,2.48
2022-11-12T01:51:14.955Z,2.52
2022-11-12T01:53:43.306Z,2.56
2022-11-12T01:56:09.697Z,2.59
2022-11-12T01:58:36.107Z,2.52
2022-11-12T02:01:02.549Z,2.41
2022-11-12T02:03:28.994Z,2.38
2022-11-12T02:05:58.565Z,2.36
2022-11-12T02:08:25.298Z,2.34
2022-11-12T02:10:51.891Z,2.37
2022-11-12T02:13:37.084Z,2.42
2022-11-12T02:16:04.441Z,2.48
2022-11-12T02:18:30.870Z,2.47
2022-11-12T02:20:58.465Z,2.48
2022-11-12T02:23:24.916Z,2.49
2022-11-12T02:25:51.315Z,2.53
2022-11-12T02:28:17.789Z,2.55
2022-11-12T02:30:46.110Z,2.47
2022-11-12T02:33:12.553Z,2.43
2022-11-12T02:35:38.969Z,2.38
2022-11-12T02:38:05.774Z,2.33
2022-11-12T02:40:32.215Z,2.23
2022-11-12T02:42:59.160Z,2.15
2022-11-12T02:45:25.880Z,2.05
2022-11-12T02:47:52.402Z,2.03
2022-11-12T02:50:18.879Z,2.02
2022-11-12T02:52:45.420Z,2.00
2022-11-12T02:55:12.234Z,2.00
2022-11-12T02:57:39.184Z,1.98
2022-11-12T03:00:06.566Z,1.94
2022-11-12T03:02:33.011Z,1.94
2022-11-12T03:04:59.401Z,1.94
2022-11-12T03:07:25.813Z,1.89
2022-11-12T03:09:52.381Z,1.90
2022-11-12T03:12:18.841Z,1.87
2022-11-12T03:14:45.242Z,1.90
2022-11-12T03:17:11.661Z,1.88
2022-11-12T03:19:38.057Z,1.88
2022-11-12T03:22:04.475Z,1.81
2022-11-12T03:24:30.897Z,1.72
2022-11-12T03:26:57.352Z,1.71
2022-11-12T03:29:23.763Z,1.71
2022-11-12T03:31:50.200Z,1.65
2022-11-12T03:34:16.577Z,1.65
2022-11-12T03:36:42.961Z,1.65
2022-11-12T03:39:09.826Z,1.65
2022-11-12T03:41:36.217Z,1.70
2022-11-12T03:44:02.634Z,1.68
2022-11-12T03:46:29.049Z,1.73
2022-11-12T03:48:55.482Z,1.79
2022-11-12T03:51:22.604Z,1.78
2022-11-12T03:53:49.014Z,1.75
2022-11-12T03:56:15.635Z,1.65
2022-11-12T03:58:42.059Z,1.54
2022-11-12T04:01:08.530Z,1.52
2022-11-12T04:03:35.006Z,1.50
2022-11-12T04:06:20.092Z,1.48
2022-11-12T04:08:46.511Z,1.45
2022-11-12T04:11:14.032Z,1.45
2022-11-12T04:13:42.099Z,1.45
2022-11-12T04:16:31.002Z,1.44
2022-11-12T04:19:16.650Z,1.41
2022-11-12T04:21:56.365Z,1.36
2022-11-12T04:24:42.517Z,1.37
2022-11-12T04:27:10.089Z,1.37
2022-11-12T04:29:55.258Z,1.34
2022-11-12T04:32:21.741Z,1.32
2022-11-12T04:34:48.229Z,1.31
2022-11-12T04:37:14.798Z,1.31
2022-11-12T04:39:41.197Z,1.31
2022-11-12T04:42:26.982Z,1.30
2022-11-12T04:45:11.497Z,1.26
2022-11-12T04:47:38.784Z,1.20
2022-11-12T04:50:07.325Z,1.19
2022-11-12T04:52:33.881Z,1.17
2022-11-12T04:55:00.433Z,1.19
2022-11-12T04:57:27.011Z,1.23
2022-11-12T04:59:53.429Z,1.23
2022-11-12T05:02:20.251Z,1.20
2022-11-12T05:04:46.816Z,1.21
2022-11-12T05:07:13.366Z,1.27
2022-11-12T05:09:40.001Z,1.25
2022-11-12T05:12:06.688Z,1.20
2022-11-12T05:14:33.175Z,1.14
2022-11-12T05:16:59.593Z,1.09
2022-11-12T05:19:26.043Z,1.14
2022-11-12T05:22:13.924Z,1.22
2022-11-12T05:24:48.594Z,1.28
2022-11-12T05:27:16.242Z,1.25
2022-11-12T05:29:42.699Z,1.13
2022-11-12T05:32:09.668Z,1.05
2022-11-12T05:34:36.230Z,1.01
2022-11-12T05:37:03.201Z,0.99
2022-11-12T05:39:29.601Z,1.00
2022-11-12T05:42:12.522Z,1.00
2022-11-12T05:44:40.101Z,1.00
2022-11-12T05:47:06.534Z,0.98
2022-11-12T05:49:33.015Z,0.99
2022-11-12T05:51:59.376Z,1.00
2022-11-12T05:54:25.850Z,0.97
2022-11-12T05:56:53.397Z,0.94
2022-11-12T05:59:19.893Z,0.94
2022-11-12T06:01:46.345Z,0.96
2022-11-12T06:04:13.604Z,0.93
2022-11-12T06:06:43.604Z,0.94
2022-11-12T06:09:10.264Z,0.96
2022-11-12T06:11:37.031Z,0.92
2022-11-12T06:14:03.730Z,0.86
2022-11-12T06:16:30.253Z,0.83
2022-11-12T06:18:56.721Z,0.81
2022-11-12T06:21:23.211Z,0.81
2022-11-12T06:23:51.230Z,0.86
2022-11-12T06:26:17.717Z,0.88
2022-11-12T06:28:44.307Z,0.94
2022-11-12T06:31:10.787Z,0.95
2022-11-12T06:33:37.216Z,0.93
2022-11-12T06:36:04.411Z,0.91
2022-11-12T06:38:31.405Z,0.89
2022-11-12T06:40:57.846Z,0.90
2022-11-12T06:43:24.679Z,0.93
2022-11-12T06:45:51.352Z,0.91
2022-11-12T06:48:17.770Z,0.92
2022-11-12T06:50:44.210Z,0.90
2022-11-12T06:53:10.608Z,0.91
2022-11-12T06:55:36.995Z,0.96
2022-11-12T06:58:03.434Z,0.99
2022-11-12T07:00:29.840Z,0.95
2022-11-12T07:02:56.303Z,0.91
2022-11-12T07:05:22.723Z,0.90
2022-11-12T07:07:49.109Z,0.90
2022-11-12T07:10:15.653Z,0.91
2022-11-12T07:12:42.085Z,0.96
2022-11-12T07:15:08.645Z,1.00
2022-11-12T07:17:35.051Z,1.06
2022-11-12T07:20:03.886Z,1.12
2022-11-12T07:22:32.602Z,1.22
2022-11-12T07:24:58.976Z,1.35
2022-11-12T07:27:25.394Z,1.46
2022-11-12T07:29:51.835Z,1.60
2022-11-12T07:32:18.253Z,1.85
2022-11-12T07:34:44.620Z,1.95
2022-11-12T07:37:11.042Z,2.11
2022-11-12T07:39:37.500Z,2.18
2022-11-12T07:42:03.992Z,2.13
2022-11-12T07:44:30.411Z,2.00
2022-11-12T07:46:56.801Z,1.93
2022-11-12T07:49:23.227Z,1.85
2022-11-12T07:51:49.610Z,1.81
2022-11-12T07:54:16.073Z,1.82
2022-11-12T07:56:42.454Z,1.90
2022-11-12T07:59:08.926Z,1.97
2022-11-12T08:01:36.282Z,1.99
2022-11-12T08:04:03.643Z,2.03
2022-11-12T08:06:30.644Z,1.95
2022-11-12T08:08:57.628Z,1.84
2022-11-12T08:11:24.249Z,1.80
2022-11-12T08:13:50.812Z,1.81
2022-11-12T08:16:17.305Z,1.87
2022-11-12T08:18:43.948Z,1.93
2022-11-12T08:21:11.526Z,2.04
2022-11-12T08:23:37.964Z,2.15
2022-11-12T08:26:05.494Z,2.27
2022-11-12T08:28:32.503Z,2.45
2022-11-12T08:31:03.223Z,2.65
2022-11-12T08:33:30.298Z,2.91
2022-11-12T08:35:56.774Z,3.11
2022-11-12T08:38:23.267Z,3.40
2022-11-12T08:40:49.775Z,3.69
2022-11-12T08:43:16.206Z,4.13
2022-11-12T08:45:42.674Z,4.55
2022-11-12T08:48:10.278Z,5.18
2022-11-12T08:50:37.737Z,6.19
2022-11-12T08:53:05.469Z,7.29
2022-11-12T08:55:33.309Z,8.38
2022-11-12T08:58:02.206Z,9.45
2022-11-12T09:00:29.122Z,10.14
2022-11-12T09:02:55.568Z,10.68
2022-11-12T09:05:22.007Z,11.11
2022-11-12T09:07:50.295Z,11.29
2022-11-12T09:10:17.520Z,11.67
2022-11-12T09:12:43.951Z,11.62
2022-11-12T09:15:36.277Z,11.49
2022-11-12T09:17:57.084Z,11.67
2022-11-12T09:20:23.927Z,11.45
2022-11-12T09:22:50.469Z,11.61
2022-11-12T09:25:16.911Z,11.68
2022-11-12T09:27:48.249Z,12.41
2022-11-12T09:30:15.224Z,12.71
2022-11-12T09:32:41.698Z,13.30
2022-11-12T09:35:08.240Z,13.81
2022-11-12T09:37:36.994Z,13.62
2022-11-12T09:40:03.586Z,14.40
2022-11-12T09:42:30.016Z,14.79
2022-11-12T09:44:57.794Z,14.99
2022-11-12T09:47:28.009Z,14.85
2022-11-12T09:50:06.484Z,15.59
2022-11-12T09:52:32.906Z,15.99
2022-11-12T09:55:11.710Z,16.39
2022-11-12T09:57:38.167Z,17.17
2022-11-12T10:00:10.802Z,17.74
2022-11-12T10:02:43.061Z,18.15
2022-11-12T10:05:09.475Z,18.84
2022-11-12T10:07:35.879Z,19.01
2022-11-12T10:10:15.826Z,19.25
2022-11-12T10:12:50.677Z,19.88
2022-11-12T10:15:45.072Z,20.26
2022-11-12T10:18:14.620Z,20.82
2022-11-12T10:20:41.088Z,21.39
2022-11-12T10:23:14.397Z,20.90
2022-11-12T10:25:41.485Z,21.03
2022-11-12T10:28:21.306Z,21.81
2022-11-12T10:30:47.681Z,22.01
2022-11-12T10:33:15.134Z,22.24
2022-11-12T10:35:41.602Z,22.46
2022-11-12T10:38:12.271Z,22.52
2022-11-12T10:40:39.439Z,22.15
2022-11-12T10:43:06.888Z,21.93
2022-11-12T10:45:33.298Z,22.12
2022-11-12T10:48:00.540Z,21.91
2022-11-12T10:50:33.509Z,20.63
2022-11-12T10:53:01.459Z,20.24
2022-11-12T10:55:32.467Z,19.54
2022-11-12T10:58:11.124Z,19.00
2022-11-12T11:00:38.404Z,18.44
2022-11-12T11:03:24.114Z,17.55
2022-11-12T11:06:20.059Z,17.97
2022-11-12T11:08:47.392Z,18.85
2022-11-12T11:11:16.834Z,20.53
2022-11-12T11:13:43.982Z,21.07
2022-11-12T11:16:14.829Z,20.18
2022-11-12T11:18:41.649Z,19.49
2022-11-12T11:21:18.420Z,19.35
2022-11-12T11:23:47.480Z,19.24
2022-11-12T11:26:29.442Z,18.82
2022-11-12T11:28:58.809Z,18.27
2022-11-12T11:31:31.373Z,18.47
2022-11-12T11:33:59.570Z,18.48
2022-11-12T11:36:28.990Z,18.29
2022-11-12T11:38:55.425Z,17.90
2022-11-12T11:41:21.839Z,17.42
2022-11-12T11:44:00.290Z,17.20
2022-11-12T11:46:26.726Z,18.09
2022-11-12T11:48:59.414Z,19.35
2022-11-12T11:51:44.819Z,20.60
2022-11-12T11:54:30.051Z,20.79
2022-11-12T11:56:58.291Z,20.08
2022-11-12T11:59:37.552Z,18.63
2022-11-12T12:02:22.624Z,18.05
2022-11-12T12:04:54.642Z,17.66
2022-11-12T12:07:40.043Z,17.63
2022-11-12T12:10:12.841Z,18.17
2022-11-12T12:12:43.297Z,18.52
2022-11-12T12:15:24.453Z,18.40
2022-11-12T12:17:57.780Z,17.79
2022-11-12T12:20:30.541Z,17.43
2022-11-12T12:22:58.699Z,17.13
2022-11-12T12:25:26.217Z,16.95
2022-11-12T12:28:06.558Z,17.36
2022-11-12T12:30:34.877Z,18.01
2022-11-12T12:33:07.348Z,17.79
2022-11-12T12:35:38.163Z,17.93
2022-11-12T12:38:12.151Z,18.04
2022-11-12T12:40:44.169Z,18.08
2022-11-12T12:43:12.420Z,18.15
2022-11-12T12:45:42.646Z,17.96
2022-11-12T12:48:19.738Z,17.23
2022-11-12T12:50:46.183Z,16.87
2022-11-12T12:53:16.236Z,16.85
2022-11-12T12:55:43.553Z,16.40
2022-11-12T12:58:17.360Z,16.15
2022-11-12T13:00:46.933Z,16.05
2022-11-12T13:03:13.419Z,16.01
2022-11-12T13:05:40.413Z,15.94
2022-11-12T13:08:10.986Z,15.87
2022-11-12T13:10:41.415Z,15.89
2022-11-12T13:13:19.891Z,15.94
2022-11-12T13:15:46.948Z,15.76
2022-11-12T13:18:32.214Z,15.72
2022-11-12T13:21:07.801Z,15.75
2022-11-12T13:24:04.650Z,15.66
2022-11-12T13:26:50.674Z,15.69
2022-11-12T13:29:29.370Z,15.71
2022-11-12T13:32:14.762Z,15.79
2022-11-12T13:34:41.152Z,15.89
2022-11-12T13:37:12.715Z,15.97
2022-11-12T13:39:39.222Z,16.03
2022-11-12T13:42:30.420Z,16.07
2022-11-12T13:44:56.813Z,16.02
2022-11-12T13:47:24.780Z,15.99
2022-11-12T13:49:51.163Z,15.86
2022-11-12T13:52:17.576Z,15.82
2022-11-12T13:54:44.062Z,15.70
2022-11-12T13:57:24.366Z,15.58
2022-11-12T14:00:07.302Z,15.40
2022-11-12T14:02:36.830Z,15.31
2022-11-12T14:05:11.620Z,15.18
2022-11-12T14:07:56.438Z,15.04
2022-11-12T14:10:45.872Z,14.91
2022-11-12T14:13:24.763Z,14.85
2022-11-12T14:15:51.121Z,14.77
2022-11-12T14:18:20.057Z,14.66
2022-11-12T14:20:46.478Z,14.56
2022-11-12T14:23:23.146Z,14.46
2022-11-12T14:25:52.420Z,14.39
2022-11-12T14:28:32.022Z,14.30
2022-11-12T14:30:59.103Z,14.14
2022-11-12T14:33:29.252Z,14.07
2022-11-12T14:36:22.052Z,13.90
2022-11-12T14:38:49.823Z,13.70
2022-11-12T14:41:20.593Z,13.60
2022-11-12T14:43:48.154Z,13.46
2022-11-12T14:46:27.986Z,13.39
2022-11-12T14:49:01.666Z,13.21
2022-11-12T14:51:28.317Z,13.04
2022-11-12T14:53:56.357Z,12.88
2022-11-12T14:56:42.989Z,12.74
2022-11-12T14:59:12.896Z,12.61
2022-11-12T15:04:26.301Z,12.36
2022-11-12T15:06:56.455Z,12.23
2022-11-12T15:09:38.716Z,12.08
2022-11-12T15:12:06.049Z,11.96
2022-11-12T15:14:32.535Z,11.83
2022-11-12T15:17:00.634Z,11.68
2022-11-12T15:19:27.464Z,11.51
2022-11-12T15:21:58.113Z,11.36
2022-11-12T15:24:29.363Z,11.28
2022-11-12T15:26:57.105Z,11.13
2022-11-12T15:29:28.281Z,10.92
2022-11-12T15:31:54.650Z,10.74
2022-11-12T15:34:28.965Z,10.59
2022-11-12T15:36:55.702Z,10.45
2022-11-12T15:39:22.209Z,10.36
2022-11-12T15:41:48.642Z,10.26
2022-11-12T15:44:15.066Z,10.15
2022-11-12T15:46:41.462Z,10.02
2022-11-12T15:49:11.938Z,9.91
2022-11-12T15:51:38.335Z,9.80
2022-11-12T15:54:04.863Z,9.72
2022-11-12T15:56:31.324Z,9.55
2022-11-12T15:58:57.729Z,9.48
2022-11-12T16:01:24.160Z,9.41
2022-11-12T16:03:50.633Z,9.35
2022-11-12T16:06:17.071Z,9.24
2022-11-12T16:08:43.489Z,9.12
2022-11-12T16:11:30.190Z,8.98
2022-11-12T16:13:56.837Z,8.85
2022-11-12T16:16:23.214Z,8.75
2022-11-12T16:18:49.688Z,8.63
2022-11-12T16:21:20.611Z,8.60
2022-11-12T16:23:47.488Z,8.54
2022-11-12T16:26:14.923Z,8.45
2022-11-12T16:28:41.381Z,8.38
2022-11-12T16:31:07.777Z,8.30
2022-11-12T16:33:34.188Z,8.20
2022-11-12T16:36:00.609Z,8.15
2022-11-12T16:38:27.063Z,8.06
2022-11-12T16:40:53.456Z,7.99
2022-11-12T16:43:19.880Z,7.93
2022-11-12T16:45:46.260Z,7.87
2022-11-12T16:48:16.003Z,7.86
2022-11-12T16:50:42.424Z,7.78
2022-11-12T16:53:08.862Z,7.70
2022-11-12T16:55:35.280Z,7.71
2022-11-12T16:58:01.714Z,7.68
2022-11-12T17:00:28.191Z,7.63
2022-11-12T17:02:54.633Z,7.59
2022-11-12T17:05:21.914Z,7.55
2022-11-12T17:07:48.623Z,7.52
2022-11-12T17:10:15.468Z,7.48
2022-11-12T17:12:41.881Z,7.44
2022-11-12T17:15:08.765Z,7.38
2022-11-12T17:17:35.190Z,7.31
2022-11-12T17:20:01.747Z,7.26
2022-11-12T17:22:28.161Z,7.18
2022-11-12T17:24:54.586Z,7.14
2022-11-12T17:27:21.118Z,7.09
2022-11-12T17:29:47.522Z,7.07
2022-11-12T17:32:13.926Z,7.07
2022-11-12T17:34:40.419Z,7.04
2022-11-12T17:37:06.850Z,7.02
2022-11-12T17:39:33.223Z,6.99
2022-11-12T17:41:59.705Z,6.93
2022-11-12T17:44:26.120Z,6.99
2022-11-12T17:46:52.537Z,6.97
2022-11-12T17:49:19.058Z,6.93
2022-11-12T17:51:45.481Z,6.91
2022-11-12T17:54:11.961Z,6.88
2022-11-12T17:56:38.391Z,6.85
2022-11-12T17:59:04.875Z,6.80
2022-11-12T18:01:31.914Z,6.83
2022-11-12T18:03:58.593Z,6.80
2022-11-12T18:06:25.915Z,6.77
2022-11-12T18:08:52.953Z,6.74
2022-11-12T18:11:19.417Z,6.72
2022-11-12T18:13:45.814Z,6.65
2022-11-12T18:16:19.613Z,6.58
2022-11-12T18:18:46.272Z,6.50
2022-11-12T18:21:12.706Z,6.46
2022-11-12T18:23:39.859Z,6.44
2022-11-12T18:26:06.650Z,6.42
2022-11-12T18:28:33.142Z,6.43
2022-11-12T18:31:00.735Z,6.43
2022-11-12T18:33:27.295Z,6.41
2022-11-12T18:36:01.211Z,6.42
2022-11-12T18:38:27.683Z,6.41
2022-11-12T18:41:04.041Z,6.37
2022-11-12T18:43:30.560Z,6.35
2022-11-12T18:45:59.088Z,6.25
2022-11-12T18:48:25.556Z,6.21
2022-11-12T18:50:51.961Z,6.18
2022-11-12T18:53:18.407Z,6.13
2022-11-12T18:55:44.809Z,6.07
2022-11-12T18:58:11.207Z,6.06
2022-11-12T19:00:37.654Z,6.04
2022-11-12T19:03:04.060Z,6.01
2022-11-12T19:05:30.480Z,6.00
2022-11-12T19:07:56.991Z,5.95
2022-11-12T19:10:23.436Z,5.89
2022-11-12T19:12:49.830Z,5.84
2022-11-12T19:15:16.221Z,5.81
2022-11-12T19:17:42.978Z,5.81
2022-11-12T19:20:09.607Z,5.78
2022-11-12T19:22:36.034Z,5.75
2022-11-12T19:25:02.928Z,5.70
2022-11-12T19:27:29.519Z,5.62
2022-11-12T19:30:02.657Z,5.57
2022-11-12T19:32:29.776Z,5.55
2022-11-12T19:34:56.188Z,5.52
2022-11-12T19:37:37.800Z,5.50
2022-11-12T19:40:05.558Z,5.37
2022-11-12T19:42:31.977Z,5.24
2022-11-12T19:44:58.389Z,5.18
2022-11-12T19:47:24.805Z,5.12
2022-11-12T19:49:51.180Z,5.15
2022-11-12T19:52:17.865Z,5.15
2022-11-12T19:54:44.239Z,5.13
2022-11-12T19:57:10.770Z,5.10
2022-11-12T19:59:37.225Z,5.11
2022-11-12T20:02:03.700Z,5.13
2022-11-12T20:04:30.094Z,5.13
2022-11-12T20:06:56.593Z,5.20
2022-11-12T20:09:23.081Z,5.17
2022-11-12T20:11:50.804Z,5.17
2022-11-12T20:14:17.366Z,5.24
2022-11-12T20:16:43.782Z,5.25
2022-11-12T20:19:10.163Z,5.26
2022-11-12T20:21:36.616Z,5.20
2022-11-12T20:24:03.081Z,5.17
2022-11-12T20:26:29.519Z,5.18
2022-11-12T20:28:56.041Z,5.17
2022-11-12T20:31:22.831Z,5.20
2022-11-12T20:33:49.946Z,5.15
2022-11-12T20:36:17.903Z,5.08
2022-11-12T20:38:44.526Z,5.04
2022-11-12T20:41:14.862Z,5.11
2022-11-12T20:43:41.515Z,5.12
2022-11-12T20:46:07.919Z,5.12
2022-11-12T20:48:37.747Z,5.13
2022-11-12T20:51:28.648Z,5.11
2022-11-12T20:53:59.298Z,5.14
2022-11-12T20:56:27.181Z,5.16
2022-11-12T20:58:53.631Z,5.16
2022-11-12T21:01:20.718Z,5.12
2022-11-12T21:03:47.381Z,5.02
2022-11-12T21:06:15.098Z,4.99
2022-11-12T21:08:42.041Z,5.03
2022-11-12T21:11:10.424Z,5.09
2022-11-12T21:13:37.246Z,5.13
2022-11-12T21:16:03.807Z,5.07
2022-11-12T21:18:30.770Z,5.01
2022-11-12T21:21:01.662Z,4.97
2022-11-12T21:23:28.786Z,5.01
2022-11-12T21:25:55.157Z,4.99
2022-11-12T21:28:21.599Z,4.92
2022-11-12T21:30:48.004Z,4.86
2022-11-12T21:33:14.510Z,4.77
2022-11-12T21:35:40.953Z,4.71
2022-11-12T21:38:07.362Z,4.69
2022-11-12T21:40:33.770Z,4.83
2022-11-12T21:43:00.338Z,4.95
2022-11-12T21:45:26.734Z,4.92
2022-11-12T21:47:53.392Z,4.82
2022-11-12T21:50:19.806Z,4.77
2022-11-12T21:52:46.186Z,4.76
2022-11-12T21:55:12.669Z,4.77
2022-11-12T21:57:39.074Z,4.77
2022-11-12T22:00:34.599Z,4.77
2022-11-12T22:02:56.118Z,4.73
2022-11-12T22:05:22.565Z,4.70
2022-11-12T22:07:49.004Z,4.68
2022-11-12T22:10:15.528Z,4.73
2022-11-12T22:12:58.679Z,4.74
2022-11-12T22:15:28.381Z,4.75
2022-11-12T22:17:54.818Z,4.78
2022-11-12T22:20:21.205Z,4.78
2022-11-12T22:22:47.637Z,4.79
2022-11-12T22:25:14.068Z,4.80
2022-11-12T22:27:40.480Z,4.82
2022-11-12T22:30:07.158Z,4.93
2022-11-12T22:32:33.557Z,5.00
2022-11-12T22:35:00.022Z,4.96
2022-11-12T22:37:26.439Z,4.92
2022-11-12T22:39:52.849Z,4.88
2022-11-12T22:42:19.256Z,4.78
2022-11-12T22:44:45.663Z,4.69
2022-11-12T22:47:12.096Z,4.64
2022-11-12T22:49:38.519Z,4.59
2022-11-12T22:52:05.028Z,4.62
2022-11-12T22:54:31.476Z,4.56
2022-11-12T22:56:57.942Z,4.61
2022-11-12T22:59:24.425Z,4.57
2022-11-12T23:01:50.953Z,4.60
2022-11-12T23:04:17.421Z,4.55
2022-11-12T23:06:43.857Z,4.43
2022-11-12T23:09:10.450Z,4.32
2022-11-12T23:11:37.770Z,4.30
2022-11-12T23:14:04.180Z,4.29
2022-11-12T23:16:31.288Z,4.31
2022-11-12T23:18:57.774Z,4.32
2022-11-12T23:21:25.335Z,4.31
2022-11-12T23:23:52.074Z,4.35
2022-11-12T23:26:22.812Z,4.32
2022-11-12T23:28:49.379Z,4.29
2022-11-12T23:31:17.341Z,4.29
2022-11-12T23:33:44.530Z,4.16
2022-11-12T23:36:11.241Z,4.12
2022-11-12T23:38:37.683Z,4.16
2022-11-12T23:41:04.635Z,4.14
2022-11-12T23:43:31.069Z,4.08
2022-11-12T23:45:57.608Z,4.04
2022-11-12T23:48:24.226Z,4.02
2022-11-12T23:50:51.124Z,4.03
2022-11-12T23:53:18.072Z,3.97
2022-11-12T23:55:44.555Z,3.95
2022-11-12T23:58:10.939Z,3.98
